Main page
METAR-TAF:

METAR-TAF

Airports :

Isle of Man,

Isle of Man Airport

latitude: 54-05N, longitude: 004-38W, elevation: 17 m

Current weather observation

The report was made 23 minutes ago, at 01:50 UTC
Temperature 10°C
Humidity 87%
Pressure 999 hPa
Visibility: 7000 m
Few clouds at a height of 2500 ft
rain

METAR: EGNS 290150Z /////KT 7000 RA FEW025 10/08 Q0999

Time: 03:13 (02:13 UTC)

Forecast

The report was made 9 hours and 13 minutes ago, at 17:00 UTC
Forecast valid from 28 at 18 UTC to 28 at 21 UTC
Wind 15 kt from the East/Northeast
Visibility 10 km or more
Few clouds at a height of 1800 ft
Scattered clouds at a height of 3000 ft
Probability 40% :
Temporary
from 28 at 18 UTC to 28 at 21 UTC
Visibility: 8000 m
light rain

TAF: EGNS 281700Z 2818/2821 06015KT 9999 FEW018 SCT030 PROB40 TEMPO 2818/2821 8000 -RA

Weather observations and forecasts of more than 4000 airports (METAR and TAF reports).

The available stations are represented by yellow and red dots on the map.

Hover mouse over dot to see the name of the station.

Then click to see weather observations and forecasts.

To change the map : click on the green buttons with a black cross to zoom in, on the green button with a dash to zoom out, or on the green arrows for adjacent maps.


METAR-TAF: